Alessa Leigh — WDB4997 — position and weather

sailwx.info

Track history (hours):
 
Tides and Currents Weather Stations Pressure Air Temp Water Temp Dewpoint Dewpoint Depression Visibility Wind Speed Wind Dir Waves Ship Positions

Alessa Leigh

Owner: DeLannoy, Chad, Newport Beach, CA. More information available from US FCC via Universal Licensing System and Coast Guard Vessel Documentation Center.

Last reported at 2017-Sep-21 22:23 UTC. Time now 2017-Sep-21 23:09 UTC.
Position N 33°37' W 117°55'.

Length 28 m; draft 2.5 m.

Type: Pleasure craft. MMSI: 338094686.

Date/timePositionNaut miles runAvg speedWind from/ knotsBaromVisibWave heightAir tempDewpointWater temp
2017-Sep-21 22:23N 33°37' W 117°55'0 0.0
2017-Sep-21 21:11N 33°37' W 117°55'0 0.0
2017-Sep-21 20:55N 33°37' W 117°55'0 0.0
2017-Sep-21 19:53N 33°37' W 117°55'0 0.0
2017-Sep-21 19:16N 33°37' W 117°55'0 0.0
2017-Sep-21 19:00N 33°37' W 117°55'0 0.0
2017-Sep-21 18:16N 33°37' W 117°55'0 0.0
2017-Sep-21 17:49N 33°37' W 117°55'0 0.0
2017-Sep-21 17:27N 33°37' W 117°55'0 0.0
2017-Sep-21 16:01N 33°37' W 117°55'0 0.0
2017-Sep-21 15:57N 33°37' W 117°55'0 0.0
2017-Sep-21 15:28N 33°37' W 117°55'0 0.0
2017-Sep-21 15:00N 33°37' W 117°55'0 0.0
2017-Sep-21 14:25N 33°37' W 117°55'0 0.0
2017-Sep-21 14:00N 33°37' W 117°55'0 0.0
2017-Sep-21 13:23N 33°37' W 117°55'0 0.0
2017-Sep-21 12:07N 33°37' W 117°55'0 0.0
2017-Sep-21 11:51N 33°37' W 117°55'0 0.0
2017-Sep-21 11:14N 33°37' W 117°55'0 0.0
2017-Sep-21 10:18N 33°37' W 117°55'0 0.0
2017-Sep-21 09:59N 33°37' W 117°55'0 0.0
2017-Sep-21 09:30N 33°37' W 117°55'0 0.0
2017-Sep-21 08:04N 33°37' W 117°55'0 0.0
2017-Sep-21 07:54N 33°37' W 117°55'0 0.0
2017-Sep-21 07:12N 33°37' W 117°55'0 0.0
2017-Sep-21 06:47N 33°37' W 117°55'0 0.0
2017-Sep-21 06:21N 33°37' W 117°55'0 0.0
2017-Sep-21 05:53N 33°37' W 117°55'0 0.0
2017-Sep-21 00:26N 33°37' W 117°55'0 0.0
2017-Sep-20 22:38N 33°37' W 117°55'0 0.0
2017-Sep-20 21:22N 33°37' W 117°55'0 0.0
2017-Sep-20 20:57N 33°37' W 117°55'0 0.0
2017-Sep-20 20:26N 33°37' W 117°55'0 0.0
2017-Sep-20 19:55N 33°37' W 117°55'0 0.0
2017-Sep-20 19:26N 33°37' W 117°55'0 0.0
2017-Sep-20 19:00N 33°37' W 117°55'0 0.0
2017-Sep-20 18:25N 33°37' W 117°55'0 0.1
2017-Sep-20 17:42N 33°37' W 117°55'1 4.6
2017-Sep-20 17:30N 33°37' W 117°54'3 5.4
2017-Sep-20 17:00N 33°35' W 117°52'5 9.1
2017-Sep-20 16:30N 33°31' W 117°48'5 9.5
2017-Sep-20 16:00N 33°35' W 117°52'3 4.9
2017-Sep-20 15:22N 33°37' W 117°55'0 0.1
2017-Sep-20 14:59N 33°37' W 117°55'0 0.0
2017-Sep-20 13:57N 33°37' W 117°55'0 0.0
2017-Sep-20 13:21N 33°37' W 117°55'0 0.0
2017-Sep-20 12:50N 33°37' W 117°55'0 0.0
2017-Sep-20 12:23N 33°37' W 117°55'0 0.0
2017-Sep-20 11:56N 33°37' W 117°55'0 0.0
2017-Sep-20 11:27N 33°37' W 117°55'0 0.0
2017-Sep-20 10:57N 33°37' W 117°55'0 0.0
2017-Sep-20 10:22N 33°37' W 117°55'0 0.0
2017-Sep-20 09:56N 33°37' W 117°55'0 0.0
2017-Sep-20 09:30N 33°37' W 117°55'0 0.0
2017-Sep-20 08:59N 33°37' W 117°55'0 0.0
2017-Sep-20 08:13N 33°37' W 117°55'0 0.0
2017-Sep-20 08:00N 33°37' W 117°55'0 0.0
2017-Sep-20 07:27N 33°37' W 117°55'0 0.0
2017-Sep-20 07:00N 33°37' W 117°55'0 0.0
2017-Sep-20 06:30N 33°37' W 117°55'0 0.0
2017-Sep-20 06:00N 33°37' W 117°55'0 0.0
2017-Sep-20 05:30N 33°37' W 117°55'0 0.0
2017-Sep-20 05:00N 33°37' W 117°55'0 0.0
2017-Sep-20 04:30N 33°37' W 117°55'0 0.0
2017-Sep-20 04:00N 33°37' W 117°55'0 0.0
2017-Sep-20 03:30N 33°37' W 117°55'0 0.0
2017-Sep-20 03:00N 33°37' W 117°55'0 0.0
2017-Sep-20 02:27N 33°37' W 117°55'0 0.0
2017-Sep-19 23:44N 33°37' W 117°55'0 0.0
2017-Sep-19 23:26N 33°37' W 117°55'0 0.0
2017-Sep-19 22:51N 33°37' W 117°55'0 0.0
2017-Sep-19 22:17N 33°37' W 117°55'0 0.0
2017-Sep-19 21:56N 33°37' W 117°55'0 0.0
2017-Sep-19 21:30N 33°37' W 117°55'0 0.0
2017-Sep-19 21:00N 33°37' W 117°55'0 0.0
2017-Sep-19 20:30N 33°37' W 117°55'0 0.0
2017-Sep-19 20:00N 33°37' W 117°55'0 0.0
2017-Sep-19 19:30N 33°37' W 117°55'0 0.0
2017-Sep-19 19:00N 33°37' W 117°55'0 0.0
2017-Sep-19 18:28N 33°37' W 117°55'0 0.0
2017-Sep-19 18:00N 33°37' W 117°55'0 0.0
2017-Sep-19 17:25N 33°37' W 117°55'0 0.0
2017-Sep-19 16:56N 33°37' W 117°55'0 0.0
2017-Sep-19 16:29N 33°37' W 117°55'0 0.0
2017-Sep-19 15:50N 33°37' W 117°55'0 0.0
2017-Sep-19 15:30N 33°37' W 117°55'0 0.0
2017-Sep-19 14:58N 33°37' W 117°55'0 0.0
2017-Sep-19 14:22N 33°37' W 117°55'0 0.0
2017-Sep-19 13:52N 33°37' W 117°55'0 0.0
2017-Sep-19 13:30N 33°37' W 117°55'0 0.0
2017-Sep-19 13:00N 33°37' W 117°55'0 0.0
2017-Sep-19 12:20N 33°37' W 117°55'0 0.0
2017-Sep-19 12:00N 33°37' W 117°55'0 0.0
2017-Sep-19 11:14N 33°37' W 117°55'0 0.0
2017-Sep-19 11:00N 33°37' W 117°55'0 0.0
2017-Sep-19 10:20N 33°37' W 117°55'0 0.0
2017-Sep-19 09:48N 33°37' W 117°55'0 0.0
2017-Sep-19 09:24N 33°37' W 117°55'0 0.0
2017-Sep-19 08:54N 33°37' W 117°55'0 0.0
2017-Sep-19 08:17N 33°37' W 117°55'0 0.0
2017-Sep-19 08:00N 33°37' W 117°55'0 0.0
2017-Sep-19 07:29N 33°37' W 117°55'0 0.0
2017-Sep-19 07:00N 33°37' W 117°55'0 0.0
2017-Sep-19 06:30N 33°37' W 117°55'0 0.0
2017-Sep-19 06:00N 33°37' W 117°55'0 0.0
2017-Sep-19 05:30N 33°37' W 117°55'0 0.0
2017-Sep-19 04:48N 33°37' W 117°55'0 0.0
2017-Sep-19 04:30N 33°37' W 117°55'0 0.0
2017-Sep-19 03:59N 33°37' W 117°55'0 0.0
2017-Sep-19 03:28N 33°37' W 117°55'0 0.0
2017-Sep-19 00:32N 33°37' W 117°55'0 0.0
2017-Sep-19 00:09N 33°37' W 117°55'0 0.0
2017-Sep-19 00:00N 33°37' W 117°55'0 0.0
2017-Sep-18 23:30N 33°37' W 117°55'0 0.0
2017-Sep-18 22:04N 33°37' W 117°55'0 0.0
2017-Sep-18 21:36N 33°37' W 117°55'0 0.0
2017-Sep-18 21:18N 33°37' W 117°55'0 0.0
2017-Sep-18 20:48N 33°37' W 117°55'0 0.0
2017-Sep-18 20:28N 33°37' W 117°55'0 0.0
2017-Sep-18 19:59N 33°37' W 117°55'0 0.0
2017-Sep-18 19:29N 33°37' W 117°55'0 0.0
2017-Sep-18 17:48N 33°37' W 117°55'0 0.0
2017-Sep-18 17:22N 33°37' W 117°55'0 0.0
2017-Sep-18 16:55N 33°37' W 117°55'0 0.0
2017-Sep-18 16:23N 33°37' W 117°55'0 0.0
2017-Sep-18 16:00N 33°37' W 117°55'0 0.0
2017-Sep-18 15:30N 33°37' W 117°55'0 0.0
2017-Sep-18 14:59N 33°37' W 117°55'0 0.0
2017-Sep-18 14:30N 33°37' W 117°55'0 0.0
2017-Sep-18 14:00N 33°37' W 117°55'0 0.0
2017-Sep-18 13:26N 33°37' W 117°55'0 0.0
2017-Sep-18 13:00N 33°37' W 117°55'0 0.0
2017-Sep-18 12:30N 33°37' W 117°55'0 0.0
2017-Sep-18 11:59N 33°37' W 117°55'0 0.0
2017-Sep-18 11:29N 33°37' W 117°55'0 0.0
2017-Sep-18 11:00N 33°37' W 117°55'0 0.0
2017-Sep-18 10:30N 33°37' W 117°55'0 0.0
2017-Sep-18 09:57N 33°37' W 117°55'0 0.0
2017-Sep-18 09:30N 33°37' W 117°55'0 0.0
2017-Sep-18 09:00N 33°37' W 117°55'0 0.0
2017-Sep-18 08:25N 33°37' W 117°55'0 0.0
2017-Sep-18 08:00N 33°37' W 117°55'0 0.0
2017-Sep-18 07:30N 33°37' W 117°55'0 0.0
2017-Sep-18 07:00N 33°37' W 117°55'0 0.0
2017-Sep-18 06:30N 33°37' W 117°55'0 0.0
2017-Sep-18 06:00N 33°37' W 117°55'0 0.0
2017-Sep-18 05:30N 33°37' W 117°55'0 0.0
2017-Sep-18 05:00N 33°37' W 117°55'0 0.0
2017-Sep-18 04:30N 33°37' W 117°55'0 0.0
2017-Sep-18 04:00N 33°37' W 117°55'0 0.0
2017-Sep-18 03:30N 33°37' W 117°55'0 0.0
2017-Sep-18 03:00N 33°37' W 117°55'0 0.0
2017-Sep-18 02:30N 33°37' W 117°55'0 0.0
2017-Sep-18 02:00N 33°37' W 117°55'0 0.0
2017-Sep-18 01:30N 33°37' W 117°55'0 0.0
2017-Sep-18 01:00N 33°37' W 117°55'0 0.0
2017-Sep-18 00:28N 33°37' W 117°55'0 0.0
2017-Sep-18 00:00N 33°37' W 117°55'0 0.0
2017-Sep-17 23:30N 33°37' W 117°55'0 0.0
2017-Sep-17 22:59N 33°37' W 117°55'0 0.0
2017-Sep-17 22:30N 33°37' W 117°55'0 0.0
2017-Sep-17 22:00N 33°37' W 117°55'0 0.0
2017-Sep-17 21:30N 33°37' W 117°55'0 0.0
2017-Sep-17 21:00N 33°37' W 117°55'0 0.0
2017-Sep-17 20:30N 33°37' W 117°55'0 0.0
2017-Sep-17 20:00N 33°37' W 117°55'0 0.0
2017-Sep-17 19:28N 33°37' W 117°55'0 0.0
2017-Sep-17 19:00N 33°37' W 117°55'0 0.0
2017-Sep-17 18:01N 33°37' W 117°55'0 0.0
2017-Sep-17 17:58N 33°37' W 117°55'0 0.0
2017-Sep-17 17:28N 33°37' W 117°55'0 0.0
2017-Sep-17 17:00N 33°37' W 117°55'0 0.0
2017-Sep-17 16:29N 33°37' W 117°55'0 0.0
2017-Sep-17 15:55N 33°37' W 117°55'0 0.0
2017-Sep-17 15:27N 33°37' W 117°55'0 0.0
2017-Sep-17 14:38N 33°37' W 117°55'0 0.0
2017-Sep-17 14:25N 33°37' W 117°55'0 0.0
2017-Sep-17 13:56N 33°37' W 117°55'0 0.0
2017-Sep-17 13:28N 33°37' W 117°55'0 0.0
2017-Sep-17 13:00N 33°37' W 117°55'0 0.0
2017-Sep-17 12:30N 33°37' W 117°55'0 0.0
2017-Sep-17 11:59N 33°37' W 117°55'0 0.0
2017-Sep-17 11:23N 33°37' W 117°55'0 0.0
2017-Sep-17 10:40N 33°37' W 117°55'0 0.0
2017-Sep-17 10:28N 33°37' W 117°55'0 0.0
2017-Sep-17 09:09N 33°37' W 117°55'0 0.0
2017-Sep-17 08:27N 33°37' W 117°55'0 0.0
2017-Sep-17 07:57N 33°37' W 117°55'0 0.0
2017-Sep-17 07:18N 33°37' W 117°55'0 0.0
2017-Sep-17 07:00N 33°37' W 117°55'0 0.0
2017-Sep-17 06:25N 33°37' W 117°55'0 0.0
2017-Sep-17 05:56N 33°37' W 117°55'0 0.0
2017-Sep-17 05:30N 33°37' W 117°55'0 0.0
2017-Sep-17 04:57N 33°37' W 117°55'0 0.0
2017-Sep-17 04:29N 33°37' W 117°55'0 0.0
2017-Sep-17 04:00N 33°37' W 117°55'0 0.0
2017-Sep-17 01:35N 33°37' W 117°55'0 0.0
2017-Sep-17 01:02N 33°37' W 117°55'0 0.0
2017-Sep-17 01:00N 33°37' W 117°55'0 0.0
2017-Sep-17 00:13N 33°37' W 117°55'0 0.0
2017-Sep-16 23:57N 33°37' W 117°55'0 0.0
2017-Sep-16 23:30N 33°37' W 117°55'0 0.0
2017-Sep-16 22:22N 33°37' W 117°55'0 0.0
2017-Sep-16 21:58N 33°37' W 117°55'0 0.0
2017-Sep-16 21:27N 33°37' W 117°55'0 0.0
2017-Sep-16 21:00N 33°37' W 117°55'0 0.0
2017-Sep-16 20:29N 33°37' W 117°55'0 0.0
2017-Sep-16 19:58N 33°37' W 117°55'0 0.0
2017-Sep-16 19:28N 33°37' W 117°55'0 0.0
2017-Sep-16 19:00N 33°37' W 117°55'0 0.0
2017-Sep-16 15:48N 33°37' W 117°55'0 0.0
2017-Sep-16 15:22N 33°37' W 117°55'0 0.0
2017-Sep-16 14:51N 33°37' W 117°55'0 0.0
2017-Sep-16 14:30N 33°37' W 117°55'0 0.0
2017-Sep-16 14:00N 33°37' W 117°55'0 0.0
2017-Sep-16 13:30N 33°37' W 117°55'0 0.0
2017-Sep-16 13:00N 33°37' W 117°55'0 0.0
2017-Sep-16 12:30N 33°37' W 117°55'0 0.0
2017-Sep-16 11:42N 33°37' W 117°55'0 0.0
2017-Sep-16 11:29N 33°37' W 117°55'0 0.0
2017-Sep-16 10:58N 33°37' W 117°55'0 0.0
2017-Sep-16 10:30N 33°37' W 117°55'0 0.0
2017-Sep-16 09:59N 33°37' W 117°55'0 0.0
2017-Sep-16 09:26N 33°37' W 117°55'0 0.0
2017-Sep-16 08:55N 33°37' W 117°55'0 0.0
2017-Sep-16 08:20N 33°37' W 117°55'0 0.0
2017-Sep-16 07:59N 33°37' W 117°55'0 0.0
2017-Sep-16 07:27N 33°37' W 117°55'0 0.0
2017-Sep-16 06:59N 33°37' W 117°55'0 0.0
2017-Sep-16 06:24N 33°37' W 117°55'0 0.0
2017-Sep-16 05:59N 33°37' W 117°55'0 0.0
2017-Sep-16 05:30N 33°37' W 117°55'0 0.0
2017-Sep-16 04:58N 33°37' W 117°55'0 0.0
2017-Sep-16 04:29N 33°37' W 117°55'0 0.0
2017-Sep-16 03:52N 33°37' W 117°55'0 0.0
2017-Sep-16 03:29N 33°37' W 117°55'0 0.0
2017-Sep-16 03:00N 33°37' W 117°55'0 0.0
2017-Sep-16 02:28N 33°37' W 117°55'0 0.0
2017-Sep-16 01:59N 33°37' W 117°55'0 0.0
2017-Sep-16 01:29N 33°37' W 117°55'0 0.0
2017-Sep-16 00:58N 33°37' W 117°55'0 0.0
2017-Sep-16 00:30N 33°37' W 117°55'0 0.0
2017-Sep-15 23:59N 33°37' W 117°55'0 0.0
2017-Sep-15 23:30N 33°37' W 117°55'0 0.0
2017-Sep-15 23:00N 33°37' W 117°55'0 0.0
2017-Sep-15 22:25N 33°37' W 117°55'0 0.0
2017-Sep-15 21:58N 33°37' W 117°55'0 0.0
2017-Sep-15 21:30N 33°37' W 117°55'0 0.0
2017-Sep-15 21:00N 33°37' W 117°55'0 0.0
2017-Sep-15 20:30N 33°37' W 117°55'0 0.0
2017-Sep-15 20:00N 33°37' W 117°55'0 0.0
2017-Sep-15 19:30N 33°37' W 117°55'0 0.0
2017-Sep-15 19:00N 33°37' W 117°55'0 0.0
2017-Sep-15 18:30N 33°37' W 117°55'0 0.0
2017-Sep-15 18:00N 33°37' W 117°55'0 0.0
2017-Sep-15 17:29N 33°37' W 117°55'0 0.0
2017-Sep-15 16:55N 33°37' W 117°55'0 0.0
2017-Sep-15 15:03N 33°37' W 117°55'0 0.0
2017-Sep-15 14:59N 33°37' W 117°55'0 0.0
2017-Sep-15 14:30N 33°37' W 117°55'0 0.0
2017-Sep-15 14:00N 33°37' W 117°55'0 0.0
2017-Sep-15 13:23N 33°37' W 117°55'0 0.0
2017-Sep-15 12:54N 33°37' W 117°55'0 0.0
2017-Sep-15 12:23N 33°37' W 117°55'0 0.0
2017-Sep-15 11:58N 33°37' W 117°55'0 0.0
2017-Sep-15 11:30N 33°37' W 117°55'0 0.0
2017-Sep-15 10:59N 33°37' W 117°55'0 0.0
2017-Sep-15 10:27N 33°37' W 117°55'0 0.0
2017-Sep-15 10:00N 33°37' W 117°55'0 0.0
2017-Sep-15 09:30N 33°37' W 117°55'0 0.0
2017-Sep-15 09:00N 33°37' W 117°55'0 0.0
2017-Sep-15 08:25N 33°37' W 117°55'0 0.0
2017-Sep-15 07:57N 33°37' W 117°55'0 0.0
2017-Sep-15 07:29N 33°37' W 117°55'0 0.0
2017-Sep-15 07:00N 33°37' W 117°55'0 0.0
2017-Sep-15 06:27N 33°37' W 117°55'0 0.0
2017-Sep-15 06:00N 33°37' W 117°55'0 0.0
2017-Sep-15 05:30N 33°37' W 117°55'0 0.0
2017-Sep-15 04:58N 33°37' W 117°55'0 0.0
2017-Sep-15 04:24N 33°37' W 117°55'0 0.0
2017-Sep-15 04:00N 33°37' W 117°55'0 0.0
2017-Sep-15 03:30N 33°37' W 117°55'0 0.0
2017-Sep-15 03:00N 33°37' W 117°55'0 0.0
2017-Sep-15 02:30N 33°37' W 117°55'0 0.0
2017-Sep-15 02:00N 33°37' W 117°55'0 0.0
2017-Sep-15 01:30N 33°37' W 117°55'0 0.0
2017-Sep-15 01:00N 33°37' W 117°55'0 0.0
2017-Sep-15 00:30N 33°37' W 117°55'0 0.0
2017-Sep-14 23:59N 33°37' W 117°55'0 0.0
2017-Sep-14 23:28N 33°37' W 117°55'0 0.0
2017-Sep-14 23:00N 33°37' W 117°55'0 0.0
2017-Sep-14 22:30N 33°37' W 117°55'0 0.0
2017-Sep-14 22:00N 33°37' W 117°55'0 0.0
2017-Sep-14 21:30N 33°37' W 117°55'0 0.0
2017-Sep-14 21:00N 33°37' W 117°55'0 0.0
2017-Sep-14 20:30N 33°37' W 117°55'0 0.0
2017-Sep-14 20:00N 33°37' W 117°55'0 0.0
2017-Sep-14 19:30N 33°37' W 117°55'0 0.0
2017-Sep-14 19:00N 33°37' W 117°55'0 0.0
2017-Sep-14 18:30N 33°37' W 117°55'0 0.0
2017-Sep-14 18:00N 33°37' W 117°55'0 0.0
2017-Sep-14 17:30N 33°37' W 117°55'0 0.0
2017-Sep-14 17:00N 33°37' W 117°55'0 0.0
2017-Sep-14 16:28N 33°37' W 117°55'0 0.0
2017-Sep-14 15:54N 33°37' W 117°55'0 0.0
2017-Sep-14 15:23N 33°37' W 117°55'0 0.0
2017-Sep-14 15:00N 33°37' W 117°55'0 0.0
2017-Sep-14 14:15N 33°37' W 117°55'0 0.0
2017-Sep-14 13:55N 33°37' W 117°55'0 0.0
2017-Sep-14 13:30N 33°37' W 117°55'0 0.0
2017-Sep-14 12:59N 33°37' W 117°55'0 0.0
2017-Sep-14 12:22N 33°37' W 117°55'0 0.0
2017-Sep-14 11:57N 33°37' W 117°55'0 0.0
2017-Sep-14 11:25N 33°37' W 117°55'0 0.0
2017-Sep-14 10:59N 33°37' W 117°55'0 0.0
2017-Sep-14 10:30N 33°37' W 117°55'0 0.0
2017-Sep-14 10:00N 33°37' W 117°55'0 0.0
2017-Sep-14 09:30N 33°37' W 117°55'0 0.0
2017-Sep-14 09:00N 33°37' W 117°55'0 0.0
2017-Sep-14 08:30N 33°37' W 117°55'0 0.0
2017-Sep-14 07:59N 33°37' W 117°55'0 0.0
2017-Sep-14 07:30N 33°37' W 117°55'0 0.0
2017-Sep-14 07:00N 33°37' W 117°55'0 0.0
2017-Sep-14 06:30N 33°37' W 117°55'0 0.0
2017-Sep-14 06:00N 33°37' W 117°55'0 0.0
2017-Sep-14 05:30N 33°37' W 117°55'0 0.0
2017-Sep-14 05:00N 33°37' W 117°55'0 0.0
2017-Sep-14 04:30N 33°37' W 117°55'0 0.0
2017-Sep-14 03:59N 33°37' W 117°55'0 0.0
2017-Sep-14 03:30N 33°37' W 117°55'0 0.0
2017-Sep-14 03:00N 33°37' W 117°55'0 0.0
2017-Sep-14 02:26N 33°37' W 117°55'0 0.0
2017-Sep-14 02:00N 33°37' W 117°55'0 0.0
2017-Sep-14 01:30N 33°37' W 117°55'0 0.0
2017-Sep-14 01:00N 33°37' W 117°55'0 0.0
2017-Sep-14 00:30N 33°37' W 117°55'0 0.0
2017-Sep-14 00:00N 33°37' W 117°55'0 0.0
2017-Sep-13 23:30N 33°37' W 117°55'0 0.0
2017-Sep-13 22:43N 33°37' W 117°55'0 0.0
2017-Sep-13 22:24N 33°37' W 117°55'0 0.0
2017-Sep-13 21:58N 33°37' W 117°55'0 0.0
2017-Sep-13 21:30N 33°37' W 117°55'0 0.0
2017-Sep-13 20:53N 33°37' W 117°55'0 0.0
2017-Sep-13 20:29N 33°37' W 117°55'0 0.0
2017-Sep-13 20:00N 33°37' W 117°55'0 0.0
2017-Sep-13 19:28N 33°37' W 117°55'0 0.0
2017-Sep-13 19:00N 33°37' W 117°55'0 0.0
2017-Sep-13 18:30N 33°37' W 117°55'0 0.0
2017-Sep-13 17:58N 33°37' W 117°55'0 0.0
2017-Sep-13 17:30N 33°37' W 117°55'0 0.0
2017-Sep-13 17:00N 33°37' W 117°55'0 0.0
2017-Sep-13 16:30N 33°37' W 117°55'0 0.0
2017-Sep-13 15:57N 33°37' W 117°55'0 0.0
2017-Sep-13 15:23N 33°37' W 117°55'0 0.0
2017-Sep-13 15:00N 33°37' W 117°55'0 0.0
2017-Sep-13 14:30N 33°37' W 117°55'0 0.0
2017-Sep-13 14:00N 33°37' W 117°55'0 0.0
2017-Sep-13 13:21N 33°37' W 117°55'0 0.0
2017-Sep-13 12:54N 33°37' W 117°55'0 0.0
2017-Sep-13 12:30N 33°37' W 117°55'0 0.0
2017-Sep-13 11:46N 33°37' W 117°55'0 0.0
2017-Sep-13 11:28N 33°37' W 117°55'0 0.0
2017-Sep-13 11:00N 33°37' W 117°55'0 0.0
2017-Sep-13 10:29N 33°37' W 117°55'0 0.0
2017-Sep-13 09:57N 33°37' W 117°55'0 0.0
2017-Sep-13 09:30N 33°37' W 117°55'0 0.0
2017-Sep-13 08:56N 33°37' W 117°55'0 0.0
2017-Sep-13 08:30N 33°37' W 117°55'0 0.0
2017-Sep-13 07:50N 33°37' W 117°55'0 0.0
2017-Sep-13 07:25N 33°37' W 117°55'0 0.0
2017-Sep-13 06:58N 33°37' W 117°55'0 0.0
2017-Sep-13 06:30N 33°37' W 117°55'0 0.0
2017-Sep-13 06:00N 33°37' W 117°55'0 0.0
2017-Sep-13 05:30N 33°37' W 117°55'0 0.0
2017-Sep-13 05:00N 33°37' W 117°55'0 0.0
2017-Sep-13 04:30N 33°37' W 117°55'0 0.0
2017-Sep-13 04:00N 33°37' W 117°55'0 0.0
2017-Sep-13 03:30N 33°37' W 117°55'0 0.0
2017-Sep-13 03:00N 33°37' W 117°55'0 0.0
2017-Sep-13 02:30N 33°37' W 117°55'0 0.0
2017-Sep-13 02:00N 33°37' W 117°55'0 0.0
2017-Sep-13 01:30N 33°37' W 117°55'0 0.0
2017-Sep-13 01:00N 33°37' W 117°55'0 0.0
2017-Sep-13 00:30N 33°37' W 117°55'0 0.0
2017-Sep-13 00:00N 33°37' W 117°55'0 0.0
2017-Sep-12 23:30N 33°37' W 117°55'0 0.0
2017-Sep-12 23:00N 33°37' W 117°55'0 0.0
2017-Sep-12 22:30N 33°37' W 117°55'0 0.0
2017-Sep-12 22:00N 33°37' W 117°55'0 0.0
2017-Sep-12 21:30N 33°37' W 117°55'0 0.0
2017-Sep-12 21:00N 33°37' W 117°55'0 0.0
2017-Sep-12 20:30N 33°37' W 117°55'0 0.0
2017-Sep-12 19:58N 33°37' W 117°55'0 0.0
2017-Sep-12 19:30N 33°37' W 117°55'0 0.0
2017-Sep-12 19:00N 33°37' W 117°55'0 0.0
2017-Sep-12 18:30N 33°37' W 117°55'0 0.0
2017-Sep-12 18:00N 33°37' W 117°55'0 0.0
2017-Sep-12 17:30N 33°37' W 117°55'0 0.0
2017-Sep-12 17:00N 33°37' W 117°55'0 0.0
2017-Sep-12 16:29N 33°37' W 117°55'0 0.0
2017-Sep-12 15:56N 33°37' W 117°55'0 0.0
2017-Sep-12 15:30N 33°37' W 117°55'0 0.0
2017-Sep-12 15:00N 33°37' W 117°55'0 0.0
2017-Sep-12 14:30N 33°37' W 117°55'0 0.0
2017-Sep-12 14:00N 33°37' W 117°55'0 0.0
2017-Sep-12 13:30N 33°37' W 117°55'0 0.0
2017-Sep-12 13:00N 33°37' W 117°55'0 0.0
2017-Sep-12 12:30N 33°37' W 117°55'0 0.0
2017-Sep-12 12:00N 33°37' W 117°55'0 0.0
2017-Sep-12 11:30N 33°37' W 117°55'0 0.0
2017-Sep-12 11:00N 33°37' W 117°55'0 0.0
2017-Sep-12 10:30N 33°37' W 117°55'0 0.0
2017-Sep-12 10:00N 33°37' W 117°55'0 0.0
2017-Sep-12 09:30N 33°37' W 117°55'0 0.0
2017-Sep-12 09:00N 33°37' W 117°55'0 0.0
2017-Sep-12 08:30N 33°37' W 117°55'0 0.0
2017-Sep-12 08:00N 33°37' W 117°55'0 0.0
2017-Sep-12 07:30N 33°37' W 117°55'0 0.0
2017-Sep-12 07:00N 33°37' W 117°55'0 0.0
2017-Sep-12 06:30N 33°37' W 117°55'0 0.0
2017-Sep-12 06:00N 33°37' W 117°55'0 0.0
2017-Sep-12 05:30N 33°37' W 117°55'0 0.0
2017-Sep-12 05:00N 33°37' W 117°55'0 0.0
2017-Sep-12 03:50N 33°37' W 117°55'0 0.0
2017-Sep-12 03:30N 33°37' W 117°55'0 0.0
2017-Sep-12 03:00N 33°37' W 117°55'0 0.0
2017-Sep-12 02:30N 33°37' W 117°55'0 0.0
2017-Sep-12 02:00N 33°37' W 117°55'0 0.0
2017-Sep-12 01:30N 33°37' W 117°55'0 0.0
2017-Sep-12 01:00N 33°37' W 117°55'0 0.0
2017-Sep-12 00:27N 33°37' W 117°55'0 0.0
2017-Sep-12 00:00N 33°37' W 117°55'0 0.0
2017-Sep-11 23:30N 33°37' W 117°55'0 0.0
2017-Sep-11 23:00N 33°37' W 117°55'0 0.0
2017-Sep-11 22:30N 33°37' W 117°55'  
Track history (hours):
 
Tides and Currents Weather Stations Pressure Air Temp Water Temp Dewpoint Dewpoint Depression Visibility Wind Speed Wind Dir Waves Ship Positions

Alessa Leigh

Owner: DeLannoy, Chad, Newport Beach, CA. More information available from US FCC via Universal Licensing System and Coast Guard Vessel Documentation Center.

Last reported at 2017-Sep-21 22:23 UTC. Time now 2017-Sep-21 23:09 UTC.
Position N 33°37' W 117°55'.

Length 28 m; draft 2.5 m.

Type: Pleasure craft. MMSI: 338094686.

Date/timePositionNaut miles runAvg speedWind from/ knotsBaromVisibWave heightAir tempDewpointWater temp
2017-Sep-21 22:23N 33°37' W 117°55'0 0.0
2017-Sep-21 21:11N 33°37' W 117°55'0 0.0
2017-Sep-21 20:55N 33°37' W 117°55'0 0.0
2017-Sep-21 19:53N 33°37' W 117°55'0 0.0
2017-Sep-21 19:16N 33°37' W 117°55'0 0.0
2017-Sep-21 19:00N 33°37' W 117°55'0 0.0
2017-Sep-21 18:16N 33°37' W 117°55'0 0.0
2017-Sep-21 17:49N 33°37' W 117°55'0 0.0
2017-Sep-21 17:27N 33°37' W 117°55'0 0.0
2017-Sep-21 16:01N 33°37' W 117°55'0 0.0
2017-Sep-21 15:57N 33°37' W 117°55'0 0.0
2017-Sep-21 15:28N 33°37' W 117°55'0 0.0
2017-Sep-21 15:00N 33°37' W 117°55'0 0.0
2017-Sep-21 14:25N 33°37' W 117°55'0 0.0
2017-Sep-21 14:00N 33°37' W 117°55'0 0.0
2017-Sep-21 13:23N 33°37' W 117°55'0 0.0
2017-Sep-21 12:07N 33°37' W 117°55'0 0.0
2017-Sep-21 11:51N 33°37' W 117°55'0 0.0
2017-Sep-21 11:14N 33°37' W 117°55'0 0.0
2017-Sep-21 10:18N 33°37' W 117°55'0 0.0
2017-Sep-21 09:59N 33°37' W 117°55'0 0.0
2017-Sep-21 09:30N 33°37' W 117°55'0 0.0
2017-Sep-21 08:04N 33°37' W 117°55'0 0.0
2017-Sep-21 07:54N 33°37' W 117°55'0 0.0
2017-Sep-21 07:12N 33°37' W 117°55'0 0.0
2017-Sep-21 06:47N 33°37' W 117°55'0 0.0
2017-Sep-21 06:21N 33°37' W 117°55'0 0.0
2017-Sep-21 05:53N 33°37' W 117°55'0 0.0
2017-Sep-21 00:26N 33°37' W 117°55'0 0.0
2017-Sep-20 22:38N 33°37' W 117°55'0 0.0
2017-Sep-20 21:22N 33°37' W 117°55'0 0.0
2017-Sep-20 20:57N 33°37' W 117°55'0 0.0
2017-Sep-20 20:26N 33°37' W 117°55'0 0.0
2017-Sep-20 19:55N 33°37' W 117°55'0 0.0
2017-Sep-20 19:26N 33°37' W 117°55'0 0.0
2017-Sep-20 19:00N 33°37' W 117°55'0 0.0
2017-Sep-20 18:25N 33°37' W 117°55'0 0.1
2017-Sep-20 17:42N 33°37' W 117°55'1 4.6
2017-Sep-20 17:30N 33°37' W 117°54'3 5.4
2017-Sep-20 17:00N 33°35' W 117°52'5 9.1
2017-Sep-20 16:30N 33°31' W 117°48'5 9.5
2017-Sep-20 16:00N 33°35' W 117°52'3 4.9
2017-Sep-20 15:22N 33°37' W 117°55'0 0.1
2017-Sep-20 14:59N 33°37' W 117°55'0 0.0
2017-Sep-20 13:57N 33°37' W 117°55'0 0.0
2017-Sep-20 13:21N 33°37' W 117°55'0 0.0
2017-Sep-20 12:50N 33°37' W 117°55'0 0.0
2017-Sep-20 12:23N 33°37' W 117°55'0 0.0
2017-Sep-20 11:56N 33°37' W 117°55'0 0.0
2017-Sep-20 11:27N 33°37' W 117°55'0 0.0
2017-Sep-20 10:57N 33°37' W 117°55'0 0.0
2017-Sep-20 10:22N 33°37' W 117°55'0 0.0
2017-Sep-20 09:56N 33°37' W 117°55'0 0.0
2017-Sep-20 09:30N 33°37' W 117°55'0 0.0
2017-Sep-20 08:59N 33°37' W 117°55'0 0.0
2017-Sep-20 08:13N 33°37' W 117°55'0 0.0
2017-Sep-20 08:00N 33°37' W 117°55'0 0.0
2017-Sep-20 07:27N 33°37' W 117°55'0 0.0
2017-Sep-20 07:00N 33°37' W 117°55'0 0.0
2017-Sep-20 06:30N 33°37' W 117°55'0 0.0
2017-Sep-20 06:00N 33°37' W 117°55'0 0.0
2017-Sep-20 05:30N 33°37' W 117°55'0 0.0
2017-Sep-20 05:00N 33°37' W 117°55'0 0.0
2017-Sep-20 04:30N 33°37' W 117°55'0 0.0
2017-Sep-20 04:00N 33°37' W 117°55'0 0.0
2017-Sep-20 03:30N 33°37' W 117°55'0 0.0
2017-Sep-20 03:00N 33°37' W 117°55'0 0.0
2017-Sep-20 02:27N 33°37' W 117°55'0 0.0
2017-Sep-19 23:44N 33°37' W 117°55'0 0.0
2017-Sep-19 23:26N 33°37' W 117°55'0 0.0
2017-Sep-19 22:51N 33°37' W 117°55'0 0.0
2017-Sep-19 22:17N 33°37' W 117°55'0 0.0
2017-Sep-19 21:56N 33°37' W 117°55'0 0.0
2017-Sep-19 21:30N 33°37' W 117°55'0 0.0
2017-Sep-19 21:00N 33°37' W 117°55'0 0.0
2017-Sep-19 20:30N 33°37' W 117°55'0 0.0
2017-Sep-19 20:00N 33°37' W 117°55'0 0.0
2017-Sep-19 19:30N 33°37' W 117°55'0 0.0
2017-Sep-19 19:00N 33°37' W 117°55'0 0.0
2017-Sep-19 18:28N 33°37' W 117°55'0 0.0
2017-Sep-19 18:00N 33°37' W 117°55'0 0.0
2017-Sep-19 17:25N 33°37' W 117°55'0 0.0
2017-Sep-19 16:56N 33°37' W 117°55'0 0.0
2017-Sep-19 16:29N 33°37' W 117°55'0 0.0
2017-Sep-19 15:50N 33°37' W 117°55'0 0.0
2017-Sep-19 15:30N 33°37' W 117°55'0 0.0
2017-Sep-19 14:58N 33°37' W 117°55'0 0.0
2017-Sep-19 14:22N 33°37' W 117°55'0 0.0
2017-Sep-19 13:52N 33°37' W 117°55'0 0.0
2017-Sep-19 13:30N 33°37' W 117°55'0 0.0
2017-Sep-19 13:00N 33°37' W 117°55'0 0.0
2017-Sep-19 12:20N 33°37' W 117°55'0 0.0
2017-Sep-19 12:00N 33°37' W 117°55'0 0.0
2017-Sep-19 11:14N 33°37' W 117°55'0 0.0
2017-Sep-19 11:00N 33°37' W 117°55'0 0.0
2017-Sep-19 10:20N 33°37' W 117°55'0 0.0
2017-Sep-19 09:48N 33°37' W 117°55'0 0.0
2017-Sep-19 09:24N 33°37' W 117°55'0 0.0
2017-Sep-19 08:54N 33°37' W 117°55'0 0.0
2017-Sep-19 08:17N 33°37' W 117°55'0 0.0
2017-Sep-19 08:00N 33°37' W 117°55'0 0.0
2017-Sep-19 07:29N 33°37' W 117°55'0 0.0
2017-Sep-19 07:00N 33°37' W 117°55'0 0.0
2017-Sep-19 06:30N 33°37' W 117°55'0 0.0
2017-Sep-19 06:00N 33°37' W 117°55'0 0.0
2017-Sep-19 05:30N 33°37' W 117°55'0 0.0
2017-Sep-19 04:48N 33°37' W 117°55'0 0.0
2017-Sep-19 04:30N 33°37' W 117°55'0 0.0
2017-Sep-19 03:59N 33°37' W 117°55'0 0.0
2017-Sep-19 03:28N 33°37' W 117°55'0 0.0
2017-Sep-19 00:32N 33°37' W 117°55'0 0.0
2017-Sep-19 00:09N 33°37' W 117°55'0 0.0
2017-Sep-19 00:00N 33°37' W 117°55'0 0.0
2017-Sep-18 23:30N 33°37' W 117°55'0 0.0
2017-Sep-18 22:04N 33°37' W 117°55'0 0.0
2017-Sep-18 21:36N 33°37' W 117°55'0 0.0
2017-Sep-18 21:18N 33°37' W 117°55'0 0.0
2017-Sep-18 20:48N 33°37' W 117°55'0 0.0
2017-Sep-18 20:28N 33°37' W 117°55'0 0.0
2017-Sep-18 19:59N 33°37' W 117°55'0 0.0
2017-Sep-18 19:29N 33°37' W 117°55'0 0.0
2017-Sep-18 17:48N 33°37' W 117°55'0 0.0
2017-Sep-18 17:22N 33°37' W 117°55'0 0.0
2017-Sep-18 16:55N 33°37' W 117°55'0 0.0
2017-Sep-18 16:23N 33°37' W 117°55'0 0.0
2017-Sep-18 16:00N 33°37' W 117°55'0 0.0
2017-Sep-18 15:30N 33°37' W 117°55'0 0.0
2017-Sep-18 14:59N 33°37' W 117°55'0 0.0
2017-Sep-18 14:30N 33°37' W 117°55'0 0.0
2017-Sep-18 14:00N 33°37' W 117°55'0 0.0
2017-Sep-18 13:26N 33°37' W 117°55'0 0.0
2017-Sep-18 13:00N 33°37' W 117°55'0 0.0
2017-Sep-18 12:30N 33°37' W 117°55'0 0.0
2017-Sep-18 11:59N 33°37' W 117°55'0 0.0
2017-Sep-18 11:29N 33°37' W 117°55'0 0.0
2017-Sep-18 11:00N 33°37' W 117°55'0 0.0
2017-Sep-18 10:30N 33°37' W 117°55'0 0.0
2017-Sep-18 09:57N 33°37' W 117°55'0 0.0
2017-Sep-18 09:30N 33°37' W 117°55'0 0.0
2017-Sep-18 09:00N 33°37' W 117°55'0 0.0
2017-Sep-18 08:25N 33°37' W 117°55'0 0.0
2017-Sep-18 08:00N 33°37' W 117°55'0 0.0
2017-Sep-18 07:30N 33°37' W 117°55'0 0.0
2017-Sep-18 07:00N 33°37' W 117°55'0 0.0
2017-Sep-18 06:30N 33°37' W 117°55'0 0.0
2017-Sep-18 06:00N 33°37' W 117°55'0 0.0
2017-Sep-18 05:30N 33°37' W 117°55'0 0.0
2017-Sep-18 05:00N 33°37' W 117°55'0 0.0
2017-Sep-18 04:30N 33°37' W 117°55'0 0.0
2017-Sep-18 04:00N 33°37' W 117°55'0 0.0
2017-Sep-18 03:30N 33°37' W 117°55'0 0.0
2017-Sep-18 03:00N 33°37' W 117°55'0 0.0
2017-Sep-18 02:30N 33°37' W 117°55'0 0.0
2017-Sep-18 02:00N 33°37' W 117°55'0 0.0
2017-Sep-18 01:30N 33°37' W 117°55'0 0.0
2017-Sep-18 01:00N 33°37' W 117°55'0 0.0
2017-Sep-18 00:28N 33°37' W 117°55'0 0.0
2017-Sep-18 00:00N 33°37' W 117°55'0 0.0
2017-Sep-17 23:30N 33°37' W 117°55'0 0.0
2017-Sep-17 22:59N 33°37' W 117°55'0 0.0
2017-Sep-17 22:30N 33°37' W 117°55'0 0.0
2017-Sep-17 22:00N 33°37' W 117°55'0 0.0
2017-Sep-17 21:30N 33°37' W 117°55'0 0.0
2017-Sep-17 21:00N 33°37' W 117°55'0 0.0
2017-Sep-17 20:30N 33°37' W 117°55'0 0.0
2017-Sep-17 20:00N 33°37' W 117°55'0 0.0
2017-Sep-17 19:28N 33°37' W 117°55'0 0.0
2017-Sep-17 19:00N 33°37' W 117°55'0 0.0
2017-Sep-17 18:01N 33°37' W 117°55'0 0.0
2017-Sep-17 17:58N 33°37' W 117°55'0 0.0
2017-Sep-17 17:28N 33°37' W 117°55'0 0.0
2017-Sep-17 17:00N 33°37' W 117°55'0 0.0
2017-Sep-17 16:29N 33°37' W 117°55'0 0.0
2017-Sep-17 15:55N 33°37' W 117°55'0 0.0
2017-Sep-17 15:27N 33°37' W 117°55'0 0.0
2017-Sep-17 14:38N 33°37' W 117°55'0 0.0
2017-Sep-17 14:25N 33°37' W 117°55'0 0.0
2017-Sep-17 13:56N 33°37' W 117°55'0 0.0
2017-Sep-17 13:28N 33°37' W 117°55'0 0.0
2017-Sep-17 13:00N 33°37' W 117°55'0 0.0
2017-Sep-17 12:30N 33°37' W 117°55'0 0.0
2017-Sep-17 11:59N 33°37' W 117°55'0 0.0
2017-Sep-17 11:23N 33°37' W 117°55'0 0.0
2017-Sep-17 10:40N 33°37' W 117°55'0 0.0
2017-Sep-17 10:28N 33°37' W 117°55'0 0.0
2017-Sep-17 09:09N 33°37' W 117°55'0 0.0
2017-Sep-17 08:27N 33°37' W 117°55'0 0.0
2017-Sep-17 07:57N 33°37' W 117°55'0 0.0
2017-Sep-17 07:18N 33°37' W 117°55'0 0.0
2017-Sep-17 07:00N 33°37' W 117°55'0 0.0
2017-Sep-17 06:25N 33°37' W 117°55'0 0.0
2017-Sep-17 05:56N 33°37' W 117°55'0 0.0
2017-Sep-17 05:30N 33°37' W 117°55'0 0.0
2017-Sep-17 04:57N 33°37' W 117°55'0 0.0
2017-Sep-17 04:29N 33°37' W 117°55'0 0.0
2017-Sep-17 04:00N 33°37' W 117°55'0 0.0
2017-Sep-17 01:35N 33°37' W 117°55'0 0.0
2017-Sep-17 01:02N 33°37' W 117°55'0 0.0
2017-Sep-17 01:00N 33°37' W 117°55'0 0.0
2017-Sep-17 00:13N 33°37' W 117°55'0 0.0
2017-Sep-16 23:57N 33°37' W 117°55'0 0.0
2017-Sep-16 23:30N 33°37' W 117°55'0 0.0
2017-Sep-16 22:22N 33°37' W 117°55'0 0.0
2017-Sep-16 21:58N 33°37' W 117°55'0 0.0
2017-Sep-16 21:27N 33°37' W 117°55'0 0.0
2017-Sep-16 21:00N 33°37' W 117°55'0 0.0
2017-Sep-16 20:29N 33°37' W 117°55'0 0.0
2017-Sep-16 19:58N 33°37' W 117°55'0 0.0
2017-Sep-16 19:28N 33°37' W 117°55'0 0.0
2017-Sep-16 19:00N 33°37' W 117°55'0 0.0
2017-Sep-16 15:48N 33°37' W 117°55'0 0.0
2017-Sep-16 15:22N 33°37' W 117°55'0 0.0
2017-Sep-16 14:51N 33°37' W 117°55'0 0.0
2017-Sep-16 14:30N 33°37' W 117°55'0 0.0
2017-Sep-16 14:00N 33°37' W 117°55'0 0.0
2017-Sep-16 13:30N 33°37' W 117°55'0 0.0
2017-Sep-16 13:00N 33°37' W 117°55'0 0.0
2017-Sep-16 12:30N 33°37' W 117°55'0 0.0
2017-Sep-16 11:42N 33°37' W 117°55'0 0.0
2017-Sep-16 11:29N 33°37' W 117°55'0 0.0
2017-Sep-16 10:58N 33°37' W 117°55'0 0.0
2017-Sep-16 10:30N 33°37' W 117°55'0 0.0
2017-Sep-16 09:59N 33°37' W 117°55'0 0.0
2017-Sep-16 09:26N 33°37' W 117°55'0 0.0
2017-Sep-16 08:55N 33°37' W 117°55'0 0.0
2017-Sep-16 08:20N 33°37' W 117°55'0 0.0
2017-Sep-16 07:59N 33°37' W 117°55'0 0.0
2017-Sep-16 07:27N 33°37' W 117°55'0 0.0
2017-Sep-16 06:59N 33°37' W 117°55'0 0.0
2017-Sep-16 06:24N 33°37' W 117°55'0 0.0
2017-Sep-16 05:59N 33°37' W 117°55'0 0.0
2017-Sep-16 05:30N 33°37' W 117°55'0 0.0
2017-Sep-16 04:58N 33°37' W 117°55'0 0.0
2017-Sep-16 04:29N 33°37' W 117°55'0 0.0
2017-Sep-16 03:52N 33°37' W 117°55'0 0.0
2017-Sep-16 03:29N 33°37' W 117°55'0 0.0
2017-Sep-16 03:00N 33°37' W 117°55'0 0.0
2017-Sep-16 02:28N 33°37' W 117°55'0 0.0
2017-Sep-16 01:59N 33°37' W 117°55'0 0.0
2017-Sep-16 01:29N 33°37' W 117°55'0 0.0
2017-Sep-16 00:58N 33°37' W 117°55'0 0.0
2017-Sep-16 00:30N 33°37' W 117°55'0 0.0
2017-Sep-15 23:59N 33°37' W 117°55'0 0.0
2017-Sep-15 23:30N 33°37' W 117°55'0 0.0
2017-Sep-15 23:00N 33°37' W 117°55'0 0.0
2017-Sep-15 22:25N 33°37' W 117°55'0 0.0
2017-Sep-15 21:58N 33°37' W 117°55'0 0.0
2017-Sep-15 21:30N 33°37' W 117°55'0 0.0
2017-Sep-15 21:00N 33°37' W 117°55'0 0.0
2017-Sep-15 20:30N 33°37' W 117°55'0 0.0
2017-Sep-15 20:00N 33°37' W 117°55'0 0.0
2017-Sep-15 19:30N 33°37' W 117°55'0 0.0
2017-Sep-15 19:00N 33°37' W 117°55'0 0.0
2017-Sep-15 18:30N 33°37' W 117°55'0 0.0
2017-Sep-15 18:00N 33°37' W 117°55'0 0.0
2017-Sep-15 17:29N 33°37' W 117°55'0 0.0
2017-Sep-15 16:55N 33°37' W 117°55'0 0.0
2017-Sep-15 15:03N 33°37' W 117°55'0 0.0
2017-Sep-15 14:59N 33°37' W 117°55'0 0.0
2017-Sep-15 14:30N 33°37' W 117°55'0 0.0
2017-Sep-15 14:00N 33°37' W 117°55'0 0.0
2017-Sep-15 13:23N 33°37' W 117°55'0 0.0
2017-Sep-15 12:54N 33°37' W 117°55'0 0.0
2017-Sep-15 12:23N 33°37' W 117°55'0 0.0
2017-Sep-15 11:58N 33°37' W 117°55'0 0.0
2017-Sep-15 11:30N 33°37' W 117°55'0 0.0
2017-Sep-15 10:59N 33°37' W 117°55'0 0.0
2017-Sep-15 10:27N 33°37' W 117°55'0 0.0
2017-Sep-15 10:00N 33°37' W 117°55'0 0.0
2017-Sep-15 09:30N 33°37' W 117°55'0 0.0
2017-Sep-15 09:00N 33°37' W 117°55'0 0.0
2017-Sep-15 08:25N 33°37' W 117°55'0 0.0
2017-Sep-15 07:57N 33°37' W 117°55'0 0.0
2017-Sep-15 07:29N 33°37' W 117°55'0 0.0
2017-Sep-15 07:00N 33°37' W 117°55'0 0.0
2017-Sep-15 06:27N 33°37' W 117°55'0 0.0
2017-Sep-15 06:00N 33°37' W 117°55'0 0.0
2017-Sep-15 05:30N 33°37' W 117°55'0 0.0
2017-Sep-15 04:58N 33°37' W 117°55'0 0.0
2017-Sep-15 04:24N 33°37' W 117°55'0 0.0
2017-Sep-15 04:00N 33°37' W 117°55'0 0.0
2017-Sep-15 03:30N 33°37' W 117°55'0 0.0
2017-Sep-15 03:00N 33°37' W 117°55'0 0.0
2017-Sep-15 02:30N 33°37' W 117°55'0 0.0
2017-Sep-15 02:00N 33°37' W 117°55'0 0.0
2017-Sep-15 01:30N 33°37' W 117°55'0 0.0
2017-Sep-15 01:00N 33°37' W 117°55'0 0.0
2017-Sep-15 00:30N 33°37' W 117°55'0 0.0
2017-Sep-14 23:59N 33°37' W 117°55'0 0.0
2017-Sep-14 23:28N 33°37' W 117°55'0 0.0
2017-Sep-14 23:00N 33°37' W 117°55'0 0.0
2017-Sep-14 22:30N 33°37' W 117°55'0 0.0
2017-Sep-14 22:00N 33°37' W 117°55'0 0.0
2017-Sep-14 21:30N 33°37' W 117°55'0 0.0
2017-Sep-14 21:00N 33°37' W 117°55'0 0.0
2017-Sep-14 20:30N 33°37' W 117°55'0 0.0
2017-Sep-14 20:00N 33°37' W 117°55'0 0.0
2017-Sep-14 19:30N 33°37' W 117°55'0 0.0
2017-Sep-14 19:00N 33°37' W 117°55'0 0.0
2017-Sep-14 18:30N 33°37' W 117°55'0 0.0
2017-Sep-14 18:00N 33°37' W 117°55'0 0.0
2017-Sep-14 17:30N 33°37' W 117°55'0 0.0
2017-Sep-14 17:00N 33°37' W 117°55'0 0.0
2017-Sep-14 16:28N 33°37' W 117°55'0 0.0
2017-Sep-14 15:54N 33°37' W 117°55'0 0.0
2017-Sep-14 15:23N 33°37' W 117°55'0 0.0
2017-Sep-14 15:00N 33°37' W 117°55'0 0.0
2017-Sep-14 14:15N 33°37' W 117°55'0 0.0
2017-Sep-14 13:55N 33°37' W 117°55'0 0.0
2017-Sep-14 13:30N 33°37' W 117°55'0 0.0
2017-Sep-14 12:59N 33°37' W 117°55'0 0.0
2017-Sep-14 12:22N 33°37' W 117°55'0 0.0
2017-Sep-14 11:57N 33°37' W 117°55'0 0.0
2017-Sep-14 11:25N 33°37' W 117°55'0 0.0
2017-Sep-14 10:59N 33°37' W 117°55'0 0.0
2017-Sep-14 10:30N 33°37' W 117°55'0 0.0
2017-Sep-14 10:00N 33°37' W 117°55'0 0.0
2017-Sep-14 09:30N 33°37' W 117°55'0 0.0
2017-Sep-14 09:00N 33°37' W 117°55'0 0.0
2017-Sep-14 08:30N 33°37' W 117°55'0 0.0
2017-Sep-14 07:59N 33°37' W 117°55'0 0.0
2017-Sep-14 07:30N 33°37' W 117°55'0 0.0
2017-Sep-14 07:00N 33°37' W 117°55'0 0.0
2017-Sep-14 06:30N 33°37' W 117°55'0 0.0
2017-Sep-14 06:00N 33°37' W 117°55'0 0.0
2017-Sep-14 05:30N 33°37' W 117°55'0 0.0
2017-Sep-14 05:00N 33°37' W 117°55'0 0.0
2017-Sep-14 04:30N 33°37' W 117°55'0 0.0
2017-Sep-14 03:59N 33°37' W 117°55'0 0.0
2017-Sep-14 03:30N 33°37' W 117°55'0 0.0
2017-Sep-14 03:00N 33°37' W 117°55'0 0.0
2017-Sep-14 02:26N 33°37' W 117°55'0 0.0
2017-Sep-14 02:00N 33°37' W 117°55'0 0.0
2017-Sep-14 01:30N 33°37' W 117°55'0 0.0
2017-Sep-14 01:00N 33°37' W 117°55'0 0.0
2017-Sep-14 00:30N 33°37' W 117°55'0 0.0
2017-Sep-14 00:00N 33°37' W 117°55'0 0.0
2017-Sep-13 23:30N 33°37' W 117°55'0 0.0
2017-Sep-13 22:43N 33°37' W 117°55'0 0.0
2017-Sep-13 22:24N 33°37' W 117°55'0 0.0
2017-Sep-13 21:58N 33°37' W 117°55'0 0.0
2017-Sep-13 21:30N 33°37' W 117°55'0 0.0
2017-Sep-13 20:53N 33°37' W 117°55'0 0.0
2017-Sep-13 20:29N 33°37' W 117°55'0 0.0
2017-Sep-13 20:00N 33°37' W 117°55'0 0.0
2017-Sep-13 19:28N 33°37' W 117°55'0 0.0
2017-Sep-13 19:00N 33°37' W 117°55'0 0.0
2017-Sep-13 18:30N 33°37' W 117°55'0 0.0
2017-Sep-13 17:58N 33°37' W 117°55'0 0.0
2017-Sep-13 17:30N 33°37' W 117°55'0 0.0
2017-Sep-13 17:00N 33°37' W 117°55'0 0.0
2017-Sep-13 16:30N 33°37' W 117°55'0 0.0
2017-Sep-13 15:57N 33°37' W 117°55'0 0.0
2017-Sep-13 15:23N 33°37' W 117°55'0 0.0
2017-Sep-13 15:00N 33°37' W 117°55'0 0.0
2017-Sep-13 14:30N 33°37' W 117°55'0 0.0
2017-Sep-13 14:00N 33°37' W 117°55'0 0.0
2017-Sep-13 13:21N 33°37' W 117°55'0 0.0
2017-Sep-13 12:54N 33°37' W 117°55'0 0.0
2017-Sep-13 12:30N 33°37' W 117°55'0 0.0
2017-Sep-13 11:46N 33°37' W 117°55'0 0.0
2017-Sep-13 11:28N 33°37' W 117°55'0 0.0
2017-Sep-13 11:00N 33°37' W 117°55'0 0.0
2017-Sep-13 10:29N 33°37' W 117°55'0 0.0
2017-Sep-13 09:57N 33°37' W 117°55'0 0.0
2017-Sep-13 09:30N 33°37' W 117°55'0 0.0
2017-Sep-13 08:56N 33°37' W 117°55'0 0.0
2017-Sep-13 08:30N 33°37' W 117°55'0 0.0
2017-Sep-13 07:50N 33°37' W 117°55'0 0.0
2017-Sep-13 07:25N 33°37' W 117°55'0 0.0
2017-Sep-13 06:58N 33°37' W 117°55'0 0.0
2017-Sep-13 06:30N 33°37' W 117°55'0 0.0
2017-Sep-13 06:00N 33°37' W 117°55'0 0.0
2017-Sep-13 05:30N 33°37' W 117°55'0 0.0
2017-Sep-13 05:00N 33°37' W 117°55'0 0.0
2017-Sep-13 04:30N 33°37' W 117°55'0 0.0
2017-Sep-13 04:00N 33°37' W 117°55'0 0.0
2017-Sep-13 03:30N 33°37' W 117°55'0 0.0
2017-Sep-13 03:00N 33°37' W 117°55'0 0.0
2017-Sep-13 02:30N 33°37' W 117°55'0 0.0
2017-Sep-13 02:00N 33°37' W 117°55'0 0.0
2017-Sep-13 01:30N 33°37' W 117°55'0 0.0
2017-Sep-13 01:00N 33°37' W 117°55'0 0.0
2017-Sep-13 00:30N 33°37' W 117°55'0 0.0
2017-Sep-13 00:00N 33°37' W 117°55'0 0.0
2017-Sep-12 23:30N 33°37' W 117°55'0 0.0
2017-Sep-12 23:00N 33°37' W 117°55'0 0.0
2017-Sep-12 22:30N 33°37' W 117°55'0 0.0
2017-Sep-12 22:00N 33°37' W 117°55'0 0.0
2017-Sep-12 21:30N 33°37' W 117°55'0 0.0
2017-Sep-12 21:00N 33°37' W 117°55'0 0.0
2017-Sep-12 20:30N 33°37' W 117°55'0 0.0
2017-Sep-12 19:58N 33°37' W 117°55'0 0.0
2017-Sep-12 19:30N 33°37' W 117°55'0 0.0
2017-Sep-12 19:00N 33°37' W 117°55'0 0.0
2017-Sep-12 18:30N 33°37' W 117°55'0 0.0
2017-Sep-12 18:00N 33°37' W 117°55'0 0.0
2017-Sep-12 17:30N 33°37' W 117°55'0 0.0
2017-Sep-12 17:00N 33°37' W 117°55'0 0.0
2017-Sep-12 16:29N 33°37' W 117°55'0 0.0
2017-Sep-12 15:56N 33°37' W 117°55'0 0.0
2017-Sep-12 15:30N 33°37' W 117°55'0 0.0
2017-Sep-12 15:00N 33°37' W 117°55'0 0.0
2017-Sep-12 14:30N 33°37' W 117°55'0 0.0
2017-Sep-12 14:00N 33°37' W 117°55'0 0.0
2017-Sep-12 13:30N 33°37' W 117°55'0 0.0
2017-Sep-12 13:00N 33°37' W 117°55'0 0.0
2017-Sep-12 12:30N 33°37' W 117°55'0 0.0
2017-Sep-12 12:00N 33°37' W 117°55'0 0.0
2017-Sep-12 11:30N 33°37' W 117°55'0 0.0
2017-Sep-12 11:00N 33°37' W 117°55'0 0.0
2017-Sep-12 10:30N 33°37' W 117°55'0 0.0
2017-Sep-12 10:00N 33°37' W 117°55'0 0.0
2017-Sep-12 09:30N 33°37' W 117°55'0 0.0
2017-Sep-12 09:00N 33°37' W 117°55'0 0.0
2017-Sep-12 08:30N 33°37' W 117°55'0 0.0
2017-Sep-12 08:00N 33°37' W 117°55'0 0.0
2017-Sep-12 07:30N 33°37' W 117°55'0 0.0
2017-Sep-12 07:00N 33°37' W 117°55'0 0.0
2017-Sep-12 06:30N 33°37' W 117°55'0 0.0
2017-Sep-12 06:00N 33°37' W 117°55'0 0.0
2017-Sep-12 05:30N 33°37' W 117°55'0 0.0
2017-Sep-12 05:00N 33°37' W 117°55'0 0.0
2017-Sep-12 03:50N 33°37' W 117°55'0 0.0
2017-Sep-12 03:30N 33°37' W 117°55'0 0.0
2017-Sep-12 03:00N 33°37' W 117°55'0 0.0
2017-Sep-12 02:30N 33°37' W 117°55'0 0.0
2017-Sep-12 02:00N 33°37' W 117°55'0 0.0
2017-Sep-12 01:30N 33°37' W 117°55'0 0.0
2017-Sep-12 01:00N 33°37' W 117°55'0 0.0
2017-Sep-12 00:27N 33°37' W 117°55'0 0.0
2017-Sep-12 00:00N 33°37' W 117°55'0 0.0
2017-Sep-11 23:30N 33°37' W 117°55'0 0.0
2017-Sep-11 23:00N 33°37' W 117°55'0 0.0
2017-Sep-11 22:30N 33°37' W 117°55'  

Dump ship's entire track history